PWSweather.com
Personal Weather Stations
Station Observations
WISCHPK61
Green Bay Schmitt Park, Green Bay, WI 54311

Green Bay Schmitt ParkGreen Bay, WI 54311

Lat: 44.514277, Lon: -87.935067

Elevation: 735

Station Type: Acu Rite Pro Weather Center model 02032C

http://greenbayweathercam.com

High Low Average
Temperature 89.4°F31.9°C 63.5°F17.5°C 74.8°F23.8°C
Dew Point 89.1°F31.7°C 63.2°F17.3°C 74.5°F23.6°C
Winds Calm Calm Calm Calm Calm SSWCalm SSW
Wind Gusts 1.2 mph1.9 kmh -- --
Humidity 99% 99% 99%
Pressure 29.45 in997.3 mb 29.37 in994.6 mb -
Precipitation 0.00 in0.0 mm - -
Hour Temp Dew Point Humidity Winds Wind Gusts Pressure Precip Precip Rate Daily Precip Total
12:00 AM 69.3°F20.7°C 69.0°F20.6°C 99% Calm Calm -- 29.37 in994.6 mb - 0.00 in0.0 mm 0.00 in0.0 mm
01:00 AM 68.2°F20.1°C 67.9°F19.9°C 99% Calm Calm -- 29.37 in994.6 mb - 0.00 in0.0 mm 0.00 in0.0 mm
02:00 AM 66.9°F19.4°C 66.6°F19.2°C 99% Calm Calm -- 29.38 in994.9 mb - 0.00 in0.0 mm 0.00 in0.0 mm
03:00 AM 65.8°F18.8°C 65.5°F18.6°C 99% Calm Calm -- 29.39 in995.3 mb - 0.00 in0.0 mm 0.00 in0.0 mm
04:00 AM 64.9°F18.3°C 64.6°F18.1°C 99% Calm Calm -- 29.39 in995.3 mb - 0.00 in0.0 mm 0.00 in0.0 mm
05:00 AM 64.0°F17.8°C 63.7°F17.6°C 99% Calm Calm -- 29.40 in995.6 mb - 0.00 in0.0 mm 0.00 in0.0 mm
06:00 AM 63.5°F17.5°C 63.2°F17.3°C 99% Calm Calm -- 29.41 in995.9 mb - 0.00 in0.0 mm 0.00 in0.0 mm
07:00 AM 64.2°F17.9°C 63.9°F17.7°C 99% Calm Calm -- 29.42 in996.3 mb - 0.00 in0.0 mm 0.00 in0.0 mm
08:00 AM 67.1°F19.5°C 66.8°F19.3°C 99% Calm Calm -- 29.44 in997.0 mb - 0.00 in0.0 mm 0.00 in0.0 mm
09:00 AM 71.1°F21.7°C 70.8°F21.6°C 99% Calm Calm -- 29.44 in997.0 mb - 0.00 in0.0 mm 0.00 in0.0 mm
10:00 AM 75.8°F24.3°C 75.5°F24.2°C 99% Calm Calm -- 29.45 in997.3 mb - 0.00 in0.0 mm 0.00 in0.0 mm
11:00 AM 77.7°F25.4°C 77.4°F25.2°C 99% Calm Calm -- 29.45 in997.3 mb - 0.00 in0.0 mm 0.00 in0.0 mm
12:00 PM 81.9°F27.7°C 81.6°F27.6°C 99% Calm Calm -- 29.44 in997.0 mb - 0.00 in0.0 mm 0.00 in0.0 mm
01:00 PM 85.1°F29.5°C 84.8°F29.3°C 99% Calm Calm -- 29.43 in996.6 mb - 0.00 in0.0 mm 0.00 in0.0 mm
02:00 PM 89.4°F31.9°C 89.1°F31.7°C 99% Calm Calm -- 29.42 in996.3 mb - 0.00 in0.0 mm 0.00 in0.0 mm
03:00 PM 88.1°F31.2°C 87.8°F31.0°C 99% Calm Calm 1.2 mph1.9 kmh 29.41 in995.9 mb - 0.00 in0.0 mm 0.00 in0.0 mm
04:00 PM 86.5°F30.3°C 86.2°F30.1°C 99% Calm Calm -- 29.40 in995.6 mb - 0.00 in0.0 mm 0.00 in0.0 mm
05:00 PM 84.9°F29.4°C 84.6°F29.2°C 99% Calm Calm -- 29.39 in995.3 mb - 0.00 in0.0 mm 0.00 in0.0 mm
06:00 PM 83.6°F28.7°C 83.3°F28.5°C 99% Calm Calm -- 29.38 in994.9 mb - 0.00 in0.0 mm 0.00 in0.0 mm
07:00 PM 80.8°F27.1°C 80.5°F26.9°C 99% Calm Calm -- 29.38 in994.9 mb - 0.00 in0.0 mm 0.00 in0.0 mm
08:00 PM 77.5°F25.3°C 77.2°F25.1°C 99% Calm Calm -- 29.38 in994.9 mb - 0.00 in0.0 mm 0.00 in0.0 mm
09:00 PM 74.6°F23.7°C 74.3°F23.5°C 99% Calm Calm -- 29.39 in995.3 mb - 0.00 in0.0 mm 0.00 in0.0 mm
10:00 PM 72.5°F22.5°C 72.2°F22.3°C 99% Calm Calm -- 29.40 in995.6 mb - 0.00 in0.0 mm 0.00 in0.0 mm
11:00 PM 71.0°F21.7°C 70.7°F21.5°C 99% Calm Calm -- 29.40 in995.6 mb - 0.00 in0.0 mm 0.00 in0.0 mm